createdAt,value
2022-08-04T00:02:30.542Z,90.50
2022-08-04T00:05:05.527Z,91.30
2022-08-04T00:07:53.265Z,91.30
2022-08-04T00:10:23.026Z,91.80
2022-08-04T00:12:52.273Z,92.50
2022-08-04T00:15:20.198Z,93.00
2022-08-04T00:17:59.907Z,93.10
2022-08-04T00:20:32.430Z,93.20
2022-08-04T00:23:01.667Z,93.20
2022-08-04T00:25:29.087Z,93.50
2022-08-04T00:27:56.017Z,93.80
2022-08-04T00:30:23.204Z,94.00
2022-08-04T00:32:50.335Z,94.50
2022-08-04T00:35:17.632Z,94.60
2022-08-04T00:37:45.494Z,95.10
2022-08-04T00:40:44.900Z,95.30
2022-08-04T00:43:32.525Z,95.80
2022-08-04T00:46:15.764Z,96.00
2022-08-04T00:48:53.065Z,95.90
2022-08-04T00:52:31.987Z,96.10
2022-08-04T00:55:05.405Z,96.30
2022-08-04T00:57:57.708Z,96.30
2022-08-04T01:00:25.212Z,96.30
2022-08-04T01:02:58.357Z,96.50
2022-08-04T01:05:38.141Z,96.80
2022-08-04T01:08:19.565Z,97.20
2022-08-04T01:11:11.577Z,97.60
2022-08-04T01:13:52.576Z,98.20
2022-08-04T01:16:24.810Z,98.60
2022-08-04T01:19:05.232Z,99.00
2022-08-04T01:21:47.991Z,99.40
2022-08-04T01:25:02.315Z,99.40
2022-08-04T01:27:43.874Z,99.60
2022-08-04T01:30:12.457Z,99.50
2022-08-04T01:32:52.133Z,99.90
2022-08-04T01:35:47.736Z,99.90
2022-08-04T01:38:34.955Z,99.90
2022-08-04T01:41:06.953Z,99.90
2022-08-04T01:43:36.084Z,99.90
2022-08-04T01:46:05.265Z,99.90
2022-08-04T01:48:38.423Z,99.90
2022-08-04T01:51:08.530Z,99.90
2022-08-04T01:53:42.390Z,99.90
2022-08-04T01:56:11.818Z,99.90
2022-08-04T01:58:40.720Z,99.90
2022-08-04T02:01:10.428Z,99.90
2022-08-04T02:04:19.995Z,99.90
2022-08-04T02:06:40.983Z,99.90
2022-08-04T02:09:22.312Z,99.90
2022-08-04T02:12:05.608Z,99.90
2022-08-04T02:14:56.934Z,99.90
2022-08-04T02:17:36.872Z,99.90
2022-08-04T02:20:12.247Z,99.90
2022-08-04T02:22:57.665Z,99.90
2022-08-04T02:25:27.452Z,99.90
2022-08-04T02:28:03.437Z,99.90
2022-08-04T02:30:44.484Z,99.90
2022-08-04T02:33:18.089Z,99.90
2022-08-04T02:35:49.709Z,99.90
2022-08-04T02:38:25.236Z,99.90
2022-08-04T02:40:56.516Z,99.90
2022-08-04T02:43:51.288Z,99.90
2022-08-04T02:46:18.324Z,99.90
2022-08-04T02:48:47.751Z,99.90
2022-08-04T02:51:17.217Z,99.90
2022-08-04T02:53:45.767Z,99.90
2022-08-04T02:56:18.177Z,99.90
2022-08-04T02:58:49.270Z,99.90
2022-08-04T03:01:16.157Z,99.90
2022-08-04T03:04:07.330Z,99.90
2022-08-04T03:07:16.893Z,99.90
2022-08-04T03:10:24.768Z,99.90
2022-08-04T03:13:36.995Z,99.90
2022-08-04T03:16:18.141Z,99.90
2022-08-04T03:19:19.072Z,99.90
2022-08-04T03:22:22.904Z,99.90
2022-08-04T03:25:22.107Z,99.90
2022-08-04T03:28:20.147Z,99.90
2022-08-04T03:31:17.741Z,99.90
2022-08-04T03:34:12.722Z,99.90
2022-08-04T03:37:01.381Z,99.90
2022-08-04T03:39:58.473Z,99.90
2022-08-04T03:42:39.206Z,99.90
2022-08-04T03:45:41.720Z,99.90
2022-08-04T03:48:08.582Z,99.90
2022-08-04T03:51:37.122Z,99.90
2022-08-04T03:54:32.184Z,99.90
2022-08-04T03:57:01.992Z,99.90
2022-08-04T03:59:53.746Z,99.90
2022-08-04T04:02:57.301Z,99.90
2022-08-04T04:05:27.649Z,99.90
2022-08-04T04:08:19.087Z,99.90
2022-08-04T04:11:09.416Z,99.90
2022-08-04T04:14:18.645Z,99.90
2022-08-04T04:17:08.862Z,99.90
2022-08-04T04:19:57.614Z,99.90
2022-08-04T04:22:46.591Z,99.90
2022-08-04T04:25:36.398Z,99.90
2022-08-04T04:28:44.736Z,99.90
2022-08-04T04:31:15.595Z,99.90
2022-08-04T04:34:31.180Z,99.90
2022-08-04T04:37:34.231Z,99.90
2022-08-04T04:40:14.329Z,99.90
2022-08-04T04:43:10.123Z,99.90
2022-08-04T04:45:55.765Z,99.90
2022-08-04T04:48:51.127Z,99.90
2022-08-04T04:51:28.963Z,99.90
2022-08-04T04:54:04.796Z,99.90
2022-08-04T04:57:03.593Z,99.90
2022-08-04T04:59:35.538Z,99.90
2022-08-04T05:02:27.189Z,99.90
2022-08-04T05:05:25.346Z,99.90
2022-08-04T05:08:43.404Z,99.90
2022-08-04T05:11:13.631Z,99.90
2022-08-04T05:14:38.678Z,99.90
2022-08-04T05:17:10.957Z,99.90
2022-08-04T05:19:51.813Z,99.90
2022-08-04T05:22:25.457Z,99.90
2022-08-04T05:25:00.819Z,99.90
2022-08-04T05:27:40.103Z,99.90
2022-08-04T05:30:09.259Z,99.90
2022-08-04T05:32:50.494Z,99.90
2022-08-04T05:35:39.002Z,99.90
2022-08-04T05:38:22.385Z,99.90
2022-08-04T05:40:51.235Z,99.90
2022-08-04T05:43:19.201Z,99.90
2022-08-04T05:45:48.503Z,99.90
2022-08-04T05:48:15.656Z,99.90
2022-08-04T05:50:43.777Z,99.90
2022-08-04T05:53:11.643Z,99.90
2022-08-04T05:55:58.641Z,99.90
2022-08-04T05:58:26.859Z,99.90
2022-08-04T06:00:55.194Z,99.90
2022-08-04T06:03:24.160Z,99.90
2022-08-04T06:05:52.881Z,99.90
2022-08-04T06:08:20.011Z,99.90
2022-08-04T06:10:49.471Z,99.90
2022-08-04T06:13:48.574Z,99.90
2022-08-04T06:16:17.855Z,99.90
2022-08-04T06:20:03.087Z,99.90
2022-08-04T06:21:51.907Z,99.90
2022-08-04T06:24:26.371Z,99.90
2022-08-04T06:26:54.019Z,99.90
2022-08-04T06:29:40.342Z,99.70
2022-08-04T06:32:30.160Z,99.70
2022-08-04T06:35:04.617Z,99.90
2022-08-04T06:37:41.968Z,99.90
2022-08-04T06:40:30.961Z,99.70
2022-08-04T06:43:02.288Z,98.90
2022-08-04T06:45:30.262Z,98.70
2022-08-04T06:47:58.402Z,98.80
2022-08-04T06:51:32.923Z,98.60
2022-08-04T06:53:13.628Z,98.70
2022-08-04T06:55:46.748Z,98.40
2022-08-04T06:58:14.934Z,98.40
2022-08-04T07:00:44.130Z,98.40
2022-08-04T07:03:11.583Z,98.60
2022-08-04T07:05:40.239Z,97.80
2022-08-04T07:08:08.213Z,98.00
2022-08-04T07:10:35.509Z,97.40
2022-08-04T07:13:03.420Z,97.50
2022-08-04T07:15:31.437Z,97.20
2022-08-04T07:18:00.380Z,97.40
2022-08-04T07:20:34.721Z,97.10
2022-08-04T07:23:07.677Z,96.60
2022-08-04T07:26:01.029Z,96.80
2022-08-04T07:28:28.074Z,96.20
2022-08-04T07:30:56.786Z,93.80
2022-08-04T07:33:24.814Z,93.70
2022-08-04T07:36:09.786Z,92.80
2022-08-04T07:38:48.581Z,92.80
2022-08-04T07:41:40.321Z,92.40
2022-08-04T07:44:08.717Z,92.20
2022-08-04T07:46:36.718Z,91.90
2022-08-04T07:49:05.067Z,91.90
2022-08-04T07:51:33.066Z,90.90
2022-08-04T07:54:00.582Z,91.20
2022-08-04T07:56:28.478Z,90.70
2022-08-04T07:58:56.023Z,88.50
2022-08-04T08:01:27.182Z,88.00
2022-08-04T08:03:56.210Z,89.70
2022-08-04T08:06:33.027Z,88.00
2022-08-04T08:09:12.519Z,89.20
2022-08-04T08:12:37.647Z,87.90
2022-08-04T08:14:35.600Z,86.50
2022-08-04T08:17:03.660Z,83.60
2022-08-04T08:19:34.832Z,83.90
2022-08-04T08:22:02.747Z,84.60
2022-08-04T08:24:30.996Z,84.40
2022-08-04T08:27:00.637Z,83.60
2022-08-04T08:29:29.667Z,82.40
2022-08-04T08:32:02.660Z,81.60
2022-08-04T08:34:34.242Z,80.90
2022-08-04T08:37:40.325Z,80.40
2022-08-04T08:40:41.402Z,79.40
2022-08-04T08:44:05.153Z,78.50
2022-08-04T08:46:14.732Z,78.20
2022-08-04T08:48:53.841Z,76.50
2022-08-04T08:51:39.125Z,77.80
2022-08-04T08:54:40.626Z,77.20
2022-08-04T08:57:33.893Z,73.80
2022-08-04T09:00:09.698Z,76.10
2022-08-04T09:03:04.178Z,76.00
2022-08-04T09:05:38.136Z,73.70
2022-08-04T09:08:30.619Z,73.10
2022-08-04T09:10:59.928Z,72.10
2022-08-04T09:13:35.901Z,72.60
2022-08-04T09:16:28.676Z,71.10
2022-08-04T09:19:04.579Z,71.20
2022-08-04T09:21:51.073Z,71.80
2022-08-04T09:24:36.094Z,70.70
2022-08-04T09:27:34.028Z,68.80
2022-08-04T09:30:09.142Z,68.10
2022-08-04T09:32:48.737Z,69.40
2022-08-04T09:35:30.692Z,69.30
2022-08-04T09:38:19.379Z,69.50
2022-08-04T09:41:20.982Z,67.60
2022-08-04T09:44:49.242Z,67.00
2022-08-04T09:47:39.182Z,65.50
2022-08-04T09:50:41.138Z,64.60
2022-08-04T09:53:13.715Z,63.40
2022-08-04T09:55:53.844Z,63.10
2022-08-04T09:58:46.775Z,62.40
2022-08-04T10:01:23.352Z,61.40
2022-08-04T10:03:59.796Z,61.50
2022-08-04T10:06:51.818Z,59.70
2022-08-04T10:09:47.870Z,58.90
2022-08-04T10:12:23.979Z,58.90
2022-08-04T10:15:28.243Z,57.00
2022-08-04T10:17:55.611Z,57.60
2022-08-04T10:20:47.121Z,56.60
2022-08-04T10:23:56.225Z,53.20
2022-08-04T10:26:48.878Z,51.50
2022-08-04T10:29:26.723Z,50.60
2022-08-04T10:32:05.133Z,50.10
2022-08-04T10:34:43.365Z,48.10
2022-08-04T10:37:17.143Z,48.10
2022-08-04T10:40:13.773Z,48.10
2022-08-04T10:42:50.301Z,49.50
2022-08-04T10:45:29.071Z,50.80
2022-08-04T10:48:35.957Z,50.70
2022-08-04T10:51:58.846Z,51.30
2022-08-04T10:55:00.144Z,51.90
2022-08-04T10:57:39.210Z,50.70
2022-08-04T11:00:11.873Z,50.10
2022-08-04T11:02:57.728Z,49.60
2022-08-04T11:05:49.637Z,49.50
2022-08-04T11:08:45.351Z,49.20
2022-08-04T11:11:22.620Z,49.90
2022-08-04T11:14:12.734Z,47.80
2022-08-04T11:16:45.019Z,49.70
2022-08-04T11:19:45.149Z,48.90
2022-08-04T11:22:23.769Z,48.40
2022-08-04T11:25:25.253Z,48.80
2022-08-04T11:28:07.381Z,48.00
2022-08-04T11:30:42.863Z,48.60
2022-08-04T11:33:36.799Z,49.20
2022-08-04T11:36:24.990Z,49.10
2022-08-04T11:39:16.010Z,50.40
2022-08-04T11:42:01.969Z,48.70
2022-08-04T11:44:50.282Z,48.10
2022-08-04T11:47:34.638Z,48.70
2022-08-04T11:50:32.525Z,47.80
2022-08-04T11:53:00.537Z,47.90
2022-08-04T11:55:29.290Z,48.10
2022-08-04T11:57:57.320Z,49.00
2022-08-04T12:00:28.095Z,49.20
2022-08-04T12:03:23.391Z,48.80
2022-08-04T12:06:13.465Z,48.00
2022-08-04T12:08:54.588Z,48.20
2022-08-04T12:12:03.595Z,48.50
2022-08-04T12:14:56.711Z,47.50
2022-08-04T12:17:37.030Z,46.60
2022-08-04T12:20:38.541Z,47.50
2022-08-04T12:23:18.324Z,47.20
2022-08-04T12:25:50.498Z,45.40
2022-08-04T12:28:26.241Z,46.40
2022-08-04T12:31:04.377Z,44.80
2022-08-04T12:34:04.639Z,46.50
2022-08-04T12:37:04.789Z,46.70
2022-08-04T12:39:33.135Z,47.40
2022-08-04T12:42:07.517Z,45.80
2022-08-04T12:44:38.884Z,45.80
2022-08-04T12:47:26.774Z,46.80
2022-08-04T12:50:02.359Z,46.30
2022-08-04T12:53:01.492Z,46.70
2022-08-04T12:55:33.518Z,45.90
2022-08-04T12:58:02.923Z,46.40
2022-08-04T13:00:42.105Z,45.80
2022-08-04T13:03:14.217Z,46.60
2022-08-04T13:05:43.000Z,44.50
2022-08-04T13:08:11.743Z,46.10
2022-08-04T13:10:45.014Z,46.30
2022-08-04T13:13:18.419Z,45.30
2022-08-04T13:16:03.090Z,45.60
2022-08-04T13:18:33.344Z,46.10
2022-08-04T13:21:19.521Z,43.80
2022-08-04T13:24:10.267Z,43.80
2022-08-04T13:27:03.546Z,44.50
2022-08-04T13:29:58.053Z,43.80
2022-08-04T13:32:29.771Z,42.80
2022-08-04T13:35:00.146Z,43.50
2022-08-04T13:37:35.355Z,43.50
2022-08-04T13:40:07.313Z,42.90
2022-08-04T13:42:35.764Z,44.80
2022-08-04T13:45:06.379Z,44.90
2022-08-04T13:47:38.250Z,42.90
2022-08-04T13:50:23.613Z,42.20
2022-08-04T13:52:53.719Z,44.90
2022-08-04T13:55:26.884Z,45.10
2022-08-04T13:57:58.997Z,44.10
2022-08-04T14:00:30.483Z,42.60
2022-08-04T14:03:23.045Z,42.70
2022-08-04T14:06:18.546Z,43.60
2022-08-04T14:08:50.526Z,43.80
2022-08-04T14:12:07.145Z,44.10
2022-08-04T14:14:26.744Z,44.00
2022-08-04T14:17:20.218Z,43.40
2022-08-04T14:19:50.435Z,42.20
2022-08-04T14:22:26.875Z,42.60
2022-08-04T14:24:57.865Z,42.70
2022-08-04T14:27:25.603Z,43.40
2022-08-04T14:29:52.603Z,44.30
2022-08-04T14:32:21.519Z,42.80
2022-08-04T14:34:51.220Z,44.70
2022-08-04T14:37:20.550Z,42.10
2022-08-04T14:40:08.271Z,41.60
2022-08-04T14:42:55.376Z,42.90
2022-08-04T14:46:03.535Z,42.60
2022-08-04T14:48:30.479Z,42.10
2022-08-04T14:50:57.940Z,43.40
2022-08-04T14:53:26.751Z,44.80
2022-08-04T14:55:57.018Z,43.50
2022-08-04T14:58:38.772Z,44.30
2022-08-04T15:01:12.964Z,44.90
2022-08-04T15:03:50.486Z,44.30
2022-08-04T15:06:26.171Z,45.10
2022-08-04T15:08:54.133Z,44.60
2022-08-04T15:11:23.098Z,44.80
2022-08-04T15:13:56.534Z,45.00
2022-08-04T15:16:25.990Z,44.90
2022-08-04T15:18:54.573Z,44.70
2022-08-04T15:21:22.926Z,44.80
2022-08-04T15:23:51.144Z,45.00
2022-08-04T15:26:43.697Z,47.00
2022-08-04T15:29:22.965Z,44.80
2022-08-04T15:32:05.697Z,45.00
2022-08-04T15:34:52.509Z,44.20
2022-08-04T15:37:28.992Z,44.50
2022-08-04T15:39:58.554Z,43.80
2022-08-04T15:43:08.862Z,44.20
2022-08-04T15:46:32.884Z,45.60
2022-08-04T15:48:42.760Z,45.70
2022-08-04T15:51:14.397Z,47.20
2022-08-04T15:54:03.650Z,47.70
2022-08-04T15:56:28.775Z,46.80
2022-08-04T15:58:57.700Z,46.20
2022-08-04T16:01:25.514Z,46.10
2022-08-04T16:04:01.142Z,46.20
2022-08-04T16:06:29.453Z,46.80
2022-08-04T16:09:02.161Z,46.40
2022-08-04T16:11:31.006Z,46.70
2022-08-04T16:13:59.233Z,46.20
2022-08-04T16:16:46.864Z,46.60
2022-08-04T16:19:22.928Z,46.20
2022-08-04T16:21:55.744Z,46.00
2022-08-04T16:24:28.727Z,46.70
2022-08-04T16:27:00.867Z,47.10
2022-08-04T16:29:28.971Z,47.00
2022-08-04T16:32:05.332Z,46.30
2022-08-04T16:34:49.188Z,46.90
2022-08-04T16:37:18.901Z,47.00
2022-08-04T16:39:50.575Z,46.80
2022-08-04T16:42:37.229Z,47.30
2022-08-04T16:45:14.145Z,47.40
2022-08-04T16:47:50.066Z,47.20
2022-08-04T16:50:23.086Z,47.40
2022-08-04T16:52:54.465Z,47.30
2022-08-04T16:55:23.775Z,46.70
2022-08-04T16:57:52.749Z,47.70
2022-08-04T17:00:32.831Z,48.10
2022-08-04T17:03:06.626Z,47.20
2022-08-04T17:05:38.291Z,46.80
2022-08-04T17:10:56.620Z,46.50
2022-08-04T17:14:02.022Z,46.70
2022-08-04T17:16:22.603Z,47.20
2022-08-04T17:18:53.275Z,47.20
2022-08-04T17:21:31.913Z,47.20
2022-08-04T17:24:15.412Z,47.20
2022-08-04T17:26:51.581Z,47.20
2022-08-04T17:29:21.805Z,48.00
2022-08-04T17:31:48.890Z,48.10
2022-08-04T17:34:21.594Z,48.10
2022-08-04T17:36:48.616Z,48.60
2022-08-04T17:39:23.922Z,49.40
2022-08-04T17:41:56.742Z,49.00
2022-08-04T17:44:38.530Z,49.70
2022-08-04T17:47:17.160Z,49.60
2022-08-04T17:49:53.331Z,50.00
2022-08-04T17:55:16.643Z,49.70
2022-08-04T17:57:52.344Z,50.20
2022-08-04T18:00:20.120Z,50.40
2022-08-04T18:02:54.234Z,50.50
2022-08-04T18:05:54.020Z,51.00
2022-08-04T18:08:40.856Z,50.90
2022-08-04T18:11:05.268Z,51.30
2022-08-04T18:13:42.885Z,51.70
2022-08-04T18:16:22.969Z,51.70
2022-08-04T18:19:09.556Z,52.10
2022-08-04T18:24:34.203Z,52.80
2022-08-04T18:27:06.656Z,52.90
2022-08-04T18:29:39.439Z,53.10
2022-08-04T18:32:09.203Z,53.40
2022-08-04T18:34:54.401Z,53.30
2022-08-04T18:40:30.031Z,53.80
2022-08-04T18:43:00.064Z,54.30
2022-08-04T18:45:34.853Z,54.50
2022-08-04T18:48:04.312Z,55.20
2022-08-04T18:51:11.206Z,55.60
2022-08-04T18:53:35.018Z,55.90
2022-08-04T18:56:20.019Z,56.50
2022-08-04T18:58:53.653Z,56.60
2022-08-04T19:01:21.057Z,57.10
2022-08-04T19:03:58.104Z,57.40
2022-08-04T19:06:26.063Z,58.00
2022-08-04T19:08:54.544Z,58.20
2022-08-04T19:11:38.592Z,58.50
2022-08-04T19:14:13.271Z,59.10
2022-08-04T19:16:41.055Z,59.60
2022-08-04T19:19:13.403Z,59.50
2022-08-04T19:22:01.588Z,59.60
2022-08-04T19:24:34.432Z,60.00
2022-08-04T19:27:07.819Z,60.30
2022-08-04T19:29:41.384Z,60.60
2022-08-04T19:32:14.061Z,60.60
2022-08-04T19:34:47.119Z,60.90
2022-08-04T19:37:57.409Z,61.20
2022-08-04T19:40:06.082Z,61.60
2022-08-04T19:42:33.095Z,62.20
2022-08-04T19:45:00.263Z,62.40
2022-08-04T19:48:17.598Z,62.90
2022-08-04T19:50:16.343Z,63.00
2022-08-04T19:52:51.461Z,63.40
2022-08-04T19:55:19.749Z,63.60
2022-08-04T19:57:50.142Z,63.70
2022-08-04T20:00:33.207Z,63.50
2022-08-04T20:03:11.378Z,64.10
2022-08-04T20:05:55.238Z,63.90
2022-08-04T20:08:26.396Z,64.30
2022-08-04T20:11:13.221Z,64.40
2022-08-04T20:13:42.978Z,64.50
2022-08-04T20:16:29.875Z,64.30
2022-08-04T20:19:00.901Z,64.30
2022-08-04T20:21:53.857Z,64.50
2022-08-04T20:24:38.832Z,65.80
2022-08-04T20:27:07.849Z,66.70
2022-08-04T20:29:40.653Z,67.10
2022-08-04T20:32:09.728Z,67.60
2022-08-04T20:34:37.751Z,67.70
2022-08-04T20:37:07.373Z,68.30
2022-08-04T20:39:37.702Z,67.80
2022-08-04T20:42:04.968Z,67.90
2022-08-04T20:44:33.579Z,68.70
2022-08-04T20:47:00.798Z,69.10
2022-08-04T20:49:34.930Z,69.40
2022-08-04T20:52:13.442Z,69.50
2022-08-04T20:54:48.079Z,69.50
2022-08-04T20:57:16.690Z,68.80
2022-08-04T20:59:50.354Z,70.30
2022-08-04T21:02:27.570Z,71.40
2022-08-04T21:04:54.934Z,70.50
2022-08-04T21:07:24.138Z,69.10
2022-08-04T21:09:51.998Z,70.10
2022-08-04T21:12:27.656Z,73.60
2022-08-04T21:15:01.589Z,75.20
2022-08-04T21:17:58.844Z,74.50
2022-08-04T21:20:28.508Z,74.10
2022-08-04T21:22:59.604Z,74.50
2022-08-04T21:25:28.848Z,74.80
2022-08-04T21:27:58.976Z,74.50
2022-08-04T21:30:31.192Z,75.10
2022-08-04T21:33:04.551Z,75.00
2022-08-04T21:35:38.233Z,75.50
2022-08-04T21:38:17.232Z,76.70
2022-08-04T21:40:55.857Z,77.20
2022-08-04T21:43:27.182Z,78.20
2022-08-04T21:45:55.867Z,78.90
2022-08-04T21:48:27.300Z,78.20
2022-08-04T21:50:55.223Z,78.30
2022-08-04T21:53:22.872Z,79.10
2022-08-04T21:56:06.697Z,79.70
2022-08-04T21:58:36.797Z,79.60
2022-08-04T22:01:06.070Z,79.10
2022-08-04T22:03:52.621Z,77.80
2022-08-04T22:06:28.004Z,78.10
2022-08-04T22:08:57.162Z,77.60
2022-08-04T22:11:49.002Z,77.70
2022-08-04T22:14:14.819Z,77.90
2022-08-04T22:16:41.740Z,78.00
2022-08-04T22:19:10.891Z,78.20
2022-08-04T22:21:39.288Z,79.20
2022-08-04T22:24:14.293Z,79.40
2022-08-04T22:26:42.254Z,79.90
2022-08-04T22:29:14.620Z,80.30
2022-08-04T22:31:53.291Z,80.60
2022-08-04T22:34:24.706Z,82.20
2022-08-04T22:36:53.494Z,83.10
2022-08-04T22:39:23.582Z,83.50
2022-08-04T22:42:03.907Z,84.20
2022-08-04T22:44:33.449Z,84.00
2022-08-04T22:47:01.280Z,81.80
2022-08-04T22:49:31.179Z,83.40
2022-08-04T22:51:58.881Z,83.10
2022-08-04T22:54:29.771Z,83.80
2022-08-04T22:56:58.859Z,83.70
2022-08-04T22:59:27.783Z,84.10
2022-08-04T23:02:00.087Z,83.40
2022-08-04T23:04:31.246Z,84.00
2022-08-04T23:06:59.006Z,83.20
2022-08-04T23:09:51.014Z,86.50
2022-08-04T23:12:25.558Z,86.50
2022-08-04T23:14:54.992Z,87.30
2022-08-04T23:17:22.831Z,87.80
2022-08-04T23:19:57.360Z,87.80
2022-08-04T23:22:41.254Z,87.80
2022-08-04T23:25:16.372Z,88.30
2022-08-04T23:27:50.449Z,88.50
2022-08-04T23:30:29.674Z,88.90
2022-08-04T23:32:57.619Z,89.10
2022-08-04T23:35:24.643Z,88.80
2022-08-04T23:37:57.927Z,88.30
2022-08-04T23:40:32.972Z,88.00
2022-08-04T23:43:17.453Z,87.40
2022-08-04T23:46:07.628Z,88.60
2022-08-04T23:48:36.657Z,90.10
2022-08-04T23:51:14.275Z,90.50
2022-08-04T23:54:01.801Z,91.10
2022-08-04T23:56:30.618Z,91.20
2022-08-04T23:59:00.088Z,91.40
